createdAt,value
2023-03-26T00:00:55.744Z,990.7
2023-03-26T00:01:56.759Z,990.7
2023-03-26T00:02:57.781Z,990.7
2023-03-26T00:03:58.704Z,990.7
2023-03-26T00:04:59.713Z,990.3
2023-03-26T00:06:00.754Z,990.6
2023-03-26T00:07:01.774Z,990.6
2023-03-26T00:08:02.697Z,990.7
2023-03-26T00:09:03.673Z,990.8
2023-03-26T00:10:04.735Z,990.7
2023-03-26T00:11:05.757Z,990.7
2023-03-26T00:12:06.768Z,990.7
2023-03-26T00:13:07.712Z,990.7
2023-03-26T00:14:08.702Z,990.7
2023-03-26T00:15:09.692Z,990.7
2023-03-26T00:16:10.771Z,990.7
2023-03-26T00:17:11.772Z,990.7
2023-03-26T00:18:12.694Z,990.7
2023-03-26T00:19:13.821Z,990.7
2023-03-26T00:20:14.730Z,990.7
2023-03-26T00:21:15.735Z,990.7
2023-03-26T00:22:16.703Z,990.6
2023-03-26T00:23:17.723Z,990
2023-03-26T00:24:18.733Z,990.4
2023-03-26T00:25:19.759Z,990.6
2023-03-26T00:26:20.735Z,990.6
2023-03-26T00:27:21.792Z,990.6
2023-03-26T00:28:22.773Z,990.6
2023-03-26T00:29:23.761Z,990.6
2023-03-26T00:30:24.736Z,990.6
2023-03-26T00:31:25.740Z,990.5
2023-03-26T00:32:26.837Z,990.5
2023-03-26T00:33:27.755Z,990.5
2023-03-26T00:34:28.716Z,990.5
2023-03-26T00:35:29.696Z,990.5
2023-03-26T00:36:30.806Z,990.4
2023-03-26T00:37:31.715Z,990.6
2023-03-26T00:38:32.737Z,990.5
2023-03-26T00:39:33.790Z,990.5
2023-03-26T00:40:34.764Z,990.5
2023-03-26T00:41:35.824Z,990.5
2023-03-26T00:42:36.781Z,990.5
2023-03-26T00:43:37.745Z,990.4
2023-03-26T00:44:38.781Z,990.4
2023-03-26T00:45:39.733Z,990.4
2023-03-26T00:46:40.984Z,990.4
2023-03-26T00:47:41.783Z,990.4
2023-03-26T00:48:45.396Z,990.4
2023-03-26T00:49:43.725Z,990.4
2023-03-26T00:50:44.760Z,990.4
2023-03-26T00:51:45.741Z,990.4
2023-03-26T00:52:46.709Z,990.3
2023-03-26T00:53:47.798Z,990.3
2023-03-26T00:54:48.759Z,990.4
2023-03-26T00:55:49.774Z,990.4
2023-03-26T00:56:50.913Z,990.4
2023-03-26T00:57:51.744Z,990.4
2023-03-26T00:58:52.786Z,990.4
2023-03-26T00:59:53.778Z,990.4
2023-03-26T01:00:54.738Z,990.4
2023-03-26T01:01:55.761Z,990.4
2023-03-26T01:02:56.807Z,990.4
2023-03-26T01:04:07.226Z,990.4
2023-03-26T01:04:58.823Z,990.4
2023-03-26T01:05:59.758Z,990.5
2023-03-26T01:07:00.741Z,990.4
2023-03-26T01:08:01.753Z,990.4
2023-03-26T01:09:02.817Z,990.4
2023-03-26T01:10:03.777Z,990.4
2023-03-26T01:11:04.736Z,990.5
2023-03-26T01:12:05.862Z,990.5
2023-03-26T01:13:06.735Z,990.5
2023-03-26T01:14:07.758Z,990.5
2023-03-26T01:15:08.796Z,990.5
2023-03-26T01:16:09.797Z,990.5
2023-03-26T01:17:10.836Z,990.5
2023-03-26T01:18:11.777Z,990.5
2023-03-26T01:19:12.772Z,990.5
2023-03-26T01:20:13.779Z,990.5
2023-03-26T01:21:14.753Z,990.5
2023-03-26T01:22:15.758Z,990.6
2023-03-26T01:23:16.839Z,990.5
2023-03-26T01:24:17.776Z,990.5
2023-03-26T01:25:18.777Z,990.4
2023-03-26T01:26:19.840Z,990.5
2023-03-26T01:27:20.839Z,990.5
2023-03-26T01:28:21.838Z,990.5
2023-03-26T01:29:22.752Z,990.5
2023-03-26T01:30:23.729Z,990.4
2023-03-26T01:31:24.756Z,990.4
2023-03-26T01:32:25.858Z,990.4
2023-03-26T01:33:26.850Z,990.4
2023-03-26T01:34:27.784Z,990.4
2023-03-26T01:35:28.826Z,989.7
2023-03-26T01:36:29.757Z,990.3
2023-03-26T01:37:30.842Z,990.4
2023-03-26T01:38:31.778Z,990.5
2023-03-26T01:39:32.796Z,990.4
2023-03-26T01:40:33.776Z,990.5
2023-03-26T01:41:34.780Z,990.5
2023-03-26T01:42:35.763Z,990.5
2023-03-26T01:43:36.796Z,990.5
2023-03-26T01:44:37.761Z,990.4
2023-03-26T01:45:38.784Z,990.4
2023-03-26T01:46:39.848Z,990.4
2023-03-26T01:47:40.802Z,990.4
2023-03-26T01:48:41.796Z,990.5
2023-03-26T01:49:42.775Z,990.4
2023-03-26T01:50:43.823Z,990.4
2023-03-26T01:51:44.847Z,990.4
2023-03-26T01:52:45.760Z,990.4
2023-03-26T01:53:46.777Z,990.4
2023-03-26T01:54:47.752Z,990.4
2023-03-26T01:55:48.785Z,990.4
2023-03-26T01:56:49.867Z,990.5
2023-03-26T01:57:50.844Z,990.4
2023-03-26T01:58:51.796Z,990.4
2023-03-26T01:59:52.752Z,990.4
2023-03-26T02:00:53.796Z,990.4
2023-03-26T02:01:54.922Z,990.4
2023-03-26T02:02:55.846Z,990.4
2023-03-26T02:03:56.857Z,990.4
2023-03-26T02:04:57.779Z,990.3
2023-03-26T02:05:58.782Z,990.3
2023-03-26T02:06:59.778Z,990.3
2023-03-26T02:08:00.760Z,990.3
2023-03-26T02:09:01.820Z,990.4
2023-03-26T02:10:02.796Z,990.3
2023-03-26T02:11:03.797Z,990.3
2023-03-26T02:12:04.789Z,990.3
2023-03-26T02:13:05.792Z,990.3
2023-03-26T02:14:06.849Z,990.3
2023-03-26T02:15:07.797Z,990.3
2023-03-26T02:16:08.848Z,990.3
2023-03-26T02:17:09.774Z,990.4
2023-03-26T02:18:10.793Z,990.4
2023-03-26T02:19:11.793Z,990.3
2023-03-26T02:20:12.799Z,990.3
2023-03-26T02:21:13.797Z,990.3
2023-03-26T02:22:14.802Z,990.2
2023-03-26T02:23:15.859Z,990.2
2023-03-26T02:24:16.815Z,990.3
2023-03-26T02:25:17.813Z,990.2
2023-03-26T02:26:18.844Z,990.3
2023-03-26T02:27:19.812Z,990.3
2023-03-26T02:28:20.875Z,990.3
2023-03-26T02:29:21.822Z,990.2
2023-03-26T02:30:22.829Z,990.3
2023-03-26T02:31:23.793Z,990.3
2023-03-26T02:32:25.423Z,990.3
2023-03-26T02:33:25.774Z,990.3
2023-03-26T02:34:26.808Z,990.3
2023-03-26T02:35:27.868Z,990.2
2023-03-26T02:36:28.837Z,990.2
2023-03-26T02:37:29.853Z,990.3
2023-03-26T02:38:30.851Z,990.3
2023-03-26T02:39:31.852Z,990.3
2023-03-26T02:40:32.833Z,990.2
2023-03-26T02:41:33.892Z,990.3
2023-03-26T02:42:34.793Z,990.3
2023-03-26T02:43:35.815Z,990.2
2023-03-26T02:44:36.840Z,990.2
2023-03-26T02:45:37.852Z,990.2
2023-03-26T02:46:38.852Z,990.2
2023-03-26T02:47:39.831Z,990.3
2023-03-26T02:48:40.792Z,990.2
2023-03-26T02:49:41.812Z,990.2
2023-03-26T02:50:42.988Z,990.2
2023-03-26T02:51:43.835Z,990.2
2023-03-26T02:52:44.797Z,990.2
2023-03-26T02:53:45.814Z,990.1
2023-03-26T02:54:46.807Z,989.6
2023-03-26T02:55:47.841Z,990
2023-03-26T02:56:48.818Z,990.1
2023-03-26T02:57:49.814Z,990.1
2023-03-26T02:58:50.874Z,990.2
2023-03-26T02:59:51.831Z,990.2
2023-03-26T03:00:52.890Z,990.2
2023-03-26T03:01:53.916Z,990.2
2023-03-26T03:02:54.884Z,990.2
2023-03-26T03:03:55.808Z,990.2
2023-03-26T03:04:56.851Z,990.2
2023-03-26T03:05:58.011Z,990.2
2023-03-26T03:06:58.850Z,990.2
2023-03-26T03:07:59.819Z,990.2
2023-03-26T03:09:00.862Z,990.2
2023-03-26T03:10:01.838Z,990.2
2023-03-26T03:11:02.797Z,990.1
2023-03-26T03:12:03.912Z,990.2
2023-03-26T03:13:04.863Z,990.2
2023-03-26T03:14:05.930Z,990.2
2023-03-26T03:15:06.830Z,990.2
2023-03-26T03:16:07.783Z,989.5
2023-03-26T03:17:08.871Z,990
2023-03-26T03:18:09.812Z,990.1
2023-03-26T03:19:10.840Z,990.4
2023-03-26T03:20:11.822Z,990.3
2023-03-26T03:21:12.816Z,990.3
2023-03-26T03:22:13.852Z,990.2
2023-03-26T03:23:14.834Z,990.3
2023-03-26T03:24:15.793Z,990.2
2023-03-26T03:25:16.854Z,990.2
2023-03-26T03:26:17.859Z,990.3
2023-03-26T03:27:18.853Z,990.3
2023-03-26T03:28:19.796Z,990.3
2023-03-26T03:29:20.874Z,990.2
2023-03-26T03:30:21.855Z,990.2
2023-03-26T03:31:22.888Z,990.3
2023-03-26T03:32:23.892Z,990.3
2023-03-26T03:33:24.844Z,990.3
2023-03-26T03:34:25.898Z,990.3
2023-03-26T03:35:26.831Z,990.4
2023-03-26T03:36:27.940Z,990.4
2023-03-26T03:37:28.865Z,990.4
2023-03-26T03:38:29.878Z,990.4
2023-03-26T03:39:30.917Z,990.4
2023-03-26T03:40:31.837Z,990.5
2023-03-26T03:41:32.862Z,990.5
2023-03-26T03:42:33.866Z,990.5
2023-03-26T03:43:34.829Z,990.4
2023-03-26T03:44:35.881Z,990.4
2023-03-26T03:45:36.878Z,990.4
2023-03-26T03:46:37.899Z,990.5
2023-03-26T03:47:38.866Z,990.5
2023-03-26T03:48:39.918Z,990.5
2023-03-26T03:49:40.842Z,990.5
2023-03-26T03:50:41.858Z,990.5
2023-03-26T03:51:42.894Z,990.5
2023-03-26T03:52:43.836Z,990.5
2023-03-26T03:53:44.807Z,990.5
2023-03-26T03:54:45.797Z,990.4
2023-03-26T03:55:46.837Z,990.4
2023-03-26T03:56:47.878Z,990.4
2023-03-26T03:57:48.955Z,990.5
2023-03-26T03:58:49.856Z,990.5
2023-03-26T03:59:50.839Z,990.5
2023-03-26T04:00:51.879Z,990.4
2023-03-26T04:01:52.976Z,990.4
2023-03-26T04:02:53.883Z,990.4
2023-03-26T04:03:54.932Z,990.4
2023-03-26T04:04:55.883Z,990.4
2023-03-26T04:05:57.026Z,990.4
2023-03-26T04:06:57.875Z,990.4
2023-03-26T04:07:58.876Z,990.4
2023-03-26T04:08:59.875Z,990.5
2023-03-26T04:10:00.807Z,990.4
2023-03-26T04:11:01.853Z,990.5
2023-03-26T04:12:02.861Z,990.5
2023-03-26T04:13:03.915Z,990.5
2023-03-26T04:14:04.876Z,990.5
2023-03-26T04:15:05.880Z,990.5
2023-03-26T04:16:06.841Z,990.5
2023-03-26T04:17:07.857Z,990.5
2023-03-26T04:18:08.887Z,990.6
2023-03-26T04:19:09.894Z,990.6
2023-03-26T04:20:10.866Z,990.5
2023-03-26T04:21:11.837Z,990.5
2023-03-26T04:22:12.908Z,990.4
2023-03-26T04:23:13.879Z,990.5
2023-03-26T04:24:14.799Z,990.4
2023-03-26T04:25:15.864Z,990.5
2023-03-26T04:26:16.877Z,990.5
2023-03-26T04:27:17.852Z,990.5
2023-03-26T04:28:18.854Z,990.5
2023-03-26T04:29:19.831Z,990.5
2023-03-26T04:30:20.879Z,990.5
2023-03-26T04:31:21.867Z,990.5
2023-03-26T04:32:22.926Z,990.5
2023-03-26T04:33:23.858Z,990.5
2023-03-26T04:34:24.894Z,990.6
2023-03-26T04:35:25.921Z,990.5
2023-03-26T04:36:26.857Z,990.5
2023-03-26T04:37:27.884Z,990.5
2023-03-26T04:38:28.875Z,990.6
2023-03-26T04:39:29.901Z,990.6
2023-03-26T04:40:30.905Z,990.6
2023-03-26T04:41:31.859Z,990.5
2023-03-26T04:42:32.876Z,990.4
2023-03-26T04:43:33.903Z,990.5
2023-03-26T04:44:35.011Z,990.5
2023-03-26T04:45:36.037Z,990.5
2023-03-26T04:46:36.912Z,990.6
2023-03-26T04:47:37.921Z,990.6
2023-03-26T04:48:38.965Z,990.7
2023-03-26T04:49:39.847Z,990.6
2023-03-26T04:50:40.855Z,990.6
2023-03-26T04:51:41.853Z,990.6
2023-03-26T04:52:45.077Z,990.6
2023-03-26T04:53:43.922Z,990.6
2023-03-26T04:54:44.844Z,990.6
2023-03-26T04:55:45.834Z,990.6
2023-03-26T04:56:46.880Z,990.6
2023-03-26T04:57:47.808Z,990.6
2023-03-26T04:58:48.915Z,990.5
2023-03-26T04:59:49.857Z,990.6
2023-03-26T05:00:50.910Z,990.6
2023-03-26T05:01:51.878Z,990.6
2023-03-26T05:02:52.920Z,990.6
2023-03-26T05:03:53.849Z,990.6
2023-03-26T05:04:54.881Z,990.6
2023-03-26T05:05:56.004Z,990.6
2023-03-26T05:06:56.894Z,990.6
2023-03-26T05:07:57.965Z,990.6
2023-03-26T05:08:58.925Z,990.6
2023-03-26T05:09:59.863Z,990.6
2023-03-26T05:11:00.983Z,990.7
2023-03-26T05:12:01.896Z,990.6
2023-03-26T05:13:02.880Z,990.6
2023-03-26T05:14:03.893Z,990.7
2023-03-26T05:15:04.923Z,990.6
2023-03-26T05:16:05.898Z,990.6
2023-03-26T05:17:06.837Z,990.6
2023-03-26T05:18:07.943Z,990.6
2023-03-26T05:19:08.917Z,990.6
2023-03-26T05:20:09.893Z,990.5
2023-03-26T05:21:10.921Z,990.6
2023-03-26T05:22:11.901Z,990.6
2023-03-26T05:23:12.807Z,990.7
2023-03-26T05:24:13.913Z,990.6
2023-03-26T05:25:14.905Z,990.7
2023-03-26T05:26:15.932Z,990.6
2023-03-26T05:27:16.902Z,990.6
2023-03-26T05:28:17.911Z,990.7
2023-03-26T05:29:18.832Z,990.7
2023-03-26T05:30:19.957Z,990.6
2023-03-26T05:31:20.931Z,990.7
2023-03-26T05:32:21.932Z,990.6
2023-03-26T05:33:23.041Z,990.8
2023-03-26T05:34:23.998Z,990.7
2023-03-26T05:35:24.916Z,990.7
2023-03-26T05:36:25.912Z,990.7
2023-03-26T05:37:26.936Z,990.6
2023-03-26T05:38:27.835Z,989.2
2023-03-26T05:39:28.875Z,990.2
2023-03-26T05:40:29.902Z,990.5
2023-03-26T05:41:30.892Z,990.6
2023-03-26T05:42:31.921Z,990.6
2023-03-26T05:43:32.968Z,990.6
2023-03-26T05:44:33.943Z,990.6
2023-03-26T05:45:34.915Z,990.7
2023-03-26T05:46:35.949Z,990.7
2023-03-26T05:47:36.893Z,990.7
2023-03-26T05:48:37.966Z,990.7
2023-03-26T05:49:38.876Z,990.7
2023-03-26T05:50:39.852Z,990.7
2023-03-26T05:51:40.942Z,990.7
2023-03-26T05:52:41.913Z,990.6
2023-03-26T05:53:42.960Z,990.7
2023-03-26T05:54:43.933Z,990.6
2023-03-26T05:55:44.955Z,990.7
2023-03-26T05:56:45.896Z,990.6
2023-03-26T05:57:46.920Z,990.6
2023-03-26T05:58:47.952Z,990.6
2023-03-26T05:59:48.961Z,990.7
2023-03-26T06:00:49.893Z,990.7
2023-03-26T06:01:50.978Z,990.7
2023-03-26T06:02:52.007Z,990.7
2023-03-26T06:03:53.144Z,990.8
2023-03-26T06:04:53.977Z,990.8
2023-03-26T06:05:54.902Z,990.8
2023-03-26T06:06:55.870Z,990.8
2023-03-26T06:07:56.932Z,990.8
2023-03-26T06:09:01.267Z,990.8
2023-03-26T06:09:58.895Z,990.8
2023-03-26T06:10:59.882Z,990.8
2023-03-26T06:12:00.921Z,990.8
2023-03-26T06:13:01.917Z,990.8
2023-03-26T06:14:02.977Z,990.7
2023-03-26T06:15:03.892Z,990.7
2023-03-26T06:16:04.997Z,990.8
2023-03-26T06:17:05.921Z,990.8
2023-03-26T06:18:06.951Z,990.8
2023-03-26T06:19:07.995Z,990.8
2023-03-26T06:20:09.479Z,990.8
2023-03-26T06:21:09.861Z,990.8
2023-03-26T06:22:10.912Z,990.8
2023-03-26T06:23:11.955Z,990.8
2023-03-26T06:24:12.932Z,990.8
2023-03-26T06:25:13.896Z,990.8
2023-03-26T06:26:14.940Z,990.8
2023-03-26T06:27:15.912Z,990.8
2023-03-26T06:28:16.891Z,990.8
2023-03-26T06:29:17.954Z,990.8
2023-03-26T06:30:18.946Z,990.8
2023-03-26T06:31:19.945Z,990.8
2023-03-26T06:32:20.913Z,990.8
2023-03-26T06:33:24.132Z,990.9
2023-03-26T06:34:22.982Z,990.8
2023-03-26T06:35:23.954Z,990.8
2023-03-26T06:36:24.878Z,990.8
2023-03-26T06:37:25.967Z,990.8
2023-03-26T06:38:26.879Z,990.8
2023-03-26T06:39:27.936Z,990.8
2023-03-26T06:40:28.943Z,990.8
2023-03-26T06:41:29.914Z,990.8
2023-03-26T06:42:32.089Z,990.8
2023-03-26T06:43:31.900Z,990.8
2023-03-26T06:44:33.015Z,990.7
2023-03-26T06:45:33.936Z,990.7
2023-03-26T06:46:34.941Z,990.8
2023-03-26T06:47:35.912Z,990.8
2023-03-26T06:48:36.913Z,990.8
2023-03-26T06:49:37.938Z,990.8
2023-03-26T06:50:38.937Z,990.8
2023-03-26T06:51:39.922Z,990.7
2023-03-26T06:52:40.958Z,990.8
2023-03-26T06:53:41.957Z,990.8
2023-03-26T06:54:42.964Z,990.8
2023-03-26T06:55:43.964Z,990.8
2023-03-26T06:56:45.052Z,990.8
2023-03-26T06:57:45.937Z,990.8
2023-03-26T06:58:46.939Z,990.8
2023-03-26T06:59:47.975Z,990.8
2023-03-26T07:00:48.930Z,990.7
2023-03-26T07:01:49.902Z,990.7
2023-03-26T07:02:50.978Z,990.8
2023-03-26T07:03:51.951Z,990.8
2023-03-26T07:04:53.400Z,990.8
2023-03-26T07:05:54.899Z,990.8
2023-03-26T07:06:55.968Z,990.8
2023-03-26T07:07:56.980Z,990.8
2023-03-26T07:08:57.998Z,990.8
2023-03-26T07:09:58.977Z,990.8
2023-03-26T07:11:00.003Z,990.9
2023-03-26T07:12:00.960Z,990.9
2023-03-26T07:13:01.957Z,991
2023-03-26T07:14:02.938Z,990.9
2023-03-26T07:15:03.932Z,990.9
2023-03-26T07:16:05.080Z,990.9
2023-03-26T07:17:05.892Z,990.9
2023-03-26T07:18:07.022Z,991.1
2023-03-26T07:19:08.006Z,991
2023-03-26T07:20:08.936Z,991
2023-03-26T07:21:10.003Z,990.9
2023-03-26T07:22:10.908Z,991
2023-03-26T07:23:11.924Z,991
2023-03-26T07:24:12.956Z,991
2023-03-26T07:25:13.950Z,991
2023-03-26T07:26:15.026Z,991
2023-03-26T07:27:15.918Z,991
2023-03-26T07:28:17.006Z,991
2023-03-26T07:29:18.072Z,991
2023-03-26T07:30:19.021Z,990.9
2023-03-26T07:31:19.951Z,990.9
2023-03-26T07:32:21.113Z,990.9
2023-03-26T07:33:22.276Z,990.6
2023-03-26T07:34:23.979Z,990.7
2023-03-26T07:35:24.949Z,990.8
2023-03-26T07:36:26.014Z,990.9
2023-03-26T07:37:26.992Z,990.9
2023-03-26T07:38:28.017Z,990.9
2023-03-26T07:39:28.893Z,990.9
2023-03-26T07:40:29.943Z,990.8
2023-03-26T07:41:30.997Z,990.9
2023-03-26T07:42:32.007Z,990.2
2023-03-26T07:43:32.931Z,990.7
2023-03-26T07:44:35.695Z,990.8
2023-03-26T07:45:35.022Z,990.8
2023-03-26T07:46:35.936Z,990.9
2023-03-26T07:47:36.954Z,990.9
2023-03-26T07:48:37.967Z,990.8
2023-03-26T07:49:38.980Z,990.9
2023-03-26T07:50:40.234Z,990.9
2023-03-26T07:51:40.978Z,990.8
2023-03-26T07:52:42.035Z,990.8
2023-03-26T07:53:42.903Z,990.8
2023-03-26T07:54:43.955Z,990.7
2023-03-26T07:55:44.956Z,990.7
2023-03-26T07:56:46.045Z,990.7
2023-03-26T07:57:46.973Z,990.7
2023-03-26T07:58:47.962Z,990.7
2023-03-26T07:59:48.957Z,990.8
2023-03-26T08:00:50.095Z,990.7
2023-03-26T08:01:50.982Z,990.7
2023-03-26T08:02:52.103Z,990.7
2023-03-26T08:03:52.996Z,990.7
2023-03-26T08:04:57.081Z,990.7
2023-03-26T08:05:58.014Z,990.7
2023-03-26T08:06:58.983Z,990.7
2023-03-26T08:07:59.950Z,990.7
2023-03-26T08:09:01.181Z,990.7
2023-03-26T08:10:02.033Z,990.7
2023-03-26T08:11:03.054Z,990.8
2023-03-26T08:12:03.981Z,990.7
2023-03-26T08:13:04.980Z,990.7
2023-03-26T08:14:05.951Z,990.8
2023-03-26T08:15:07.033Z,990.7
2023-03-26T08:16:08.123Z,990.7
2023-03-26T08:17:08.943Z,990.7
2023-03-26T08:18:10.021Z,990.7
2023-03-26T08:19:10.985Z,990.7
2023-03-26T08:20:11.948Z,990.7
2023-03-26T08:21:13.021Z,990.7
2023-03-26T08:22:13.972Z,990.7
2023-03-26T08:23:14.930Z,990.6
2023-03-26T08:24:15.994Z,990.6
2023-03-26T08:25:17.012Z,990.6
2023-03-26T08:26:18.052Z,990.7
2023-03-26T08:27:18.965Z,990.6
2023-03-26T08:28:20.086Z,990.6
2023-03-26T08:29:22.037Z,990.6
2023-03-26T08:30:23.074Z,990.6
2023-03-26T08:31:24.050Z,990.6
2023-03-26T08:32:25.002Z,990.5
2023-03-26T08:33:26.027Z,990.5
2023-03-26T08:34:27.023Z,990.5
2023-03-26T08:35:27.955Z,990.5
2023-03-26T08:36:28.942Z,990.5
2023-03-26T08:37:29.984Z,990.5
2023-03-26T08:38:31.009Z,990.5
2023-03-26T08:39:32.072Z,990.4
2023-03-26T08:40:33.011Z,990.5
2023-03-26T08:41:33.975Z,990.5
2023-03-26T08:42:35.038Z,990.5
2023-03-26T08:43:36.033Z,990.1
2023-03-26T08:44:37.005Z,990.3
2023-03-26T08:45:38.073Z,990.4
2023-03-26T08:46:38.994Z,990.4
2023-03-26T08:47:40.015Z,990.5
2023-03-26T08:48:40.992Z,990.4
2023-03-26T08:49:42.019Z,990.3
2023-03-26T08:50:42.992Z,990.4
2023-03-26T08:51:43.972Z,990.4
2023-03-26T08:52:45.372Z,990.5
2023-03-26T08:53:45.976Z,990.4
2023-03-26T08:54:46.967Z,990.4
2023-03-26T08:55:47.976Z,990.4
2023-03-26T08:56:49.037Z,990.3
2023-03-26T08:57:49.971Z,990.4
2023-03-26T08:58:51.016Z,990.3
2023-03-26T08:59:52.022Z,990.3
2023-03-26T09:00:53.318Z,990.3
2023-03-26T09:01:54.099Z,990.4
2023-03-26T09:02:55.069Z,990.4
2023-03-26T09:03:56.017Z,990.5
2023-03-26T09:04:57.077Z,990.3
2023-03-26T09:05:57.995Z,990.3
2023-03-26T09:06:59.000Z,990.3
2023-03-26T09:07:59.949Z,990.3
2023-03-26T09:09:00.959Z,990.3
2023-03-26T09:10:02.497Z,990.3
2023-03-26T09:11:04.094Z,990.4
2023-03-26T09:12:05.051Z,990.4
2023-03-26T09:13:06.002Z,990.3
2023-03-26T09:14:07.035Z,990.4
2023-03-26T09:15:07.992Z,990.5
2023-03-26T09:16:08.966Z,990.6
2023-03-26T09:17:10.045Z,990.8
2023-03-26T09:18:11.045Z,990.8
2023-03-26T09:19:12.011Z,990.8
2023-03-26T09:20:13.093Z,990.8
2023-03-26T09:21:14.094Z,990.8
2023-03-26T09:22:14.973Z,990.7
2023-03-26T09:23:16.009Z,990.7
2023-03-26T09:24:17.102Z,990.6
2023-03-26T09:25:17.976Z,990.6
2023-03-26T09:26:18.981Z,990.5
2023-03-26T09:27:20.055Z,990.5
2023-03-26T09:28:24.103Z,990.5
2023-03-26T09:29:25.001Z,990.5
2023-03-26T09:30:26.011Z,990.5
2023-03-26T09:31:27.081Z,990.5
2023-03-26T09:32:28.046Z,990.5
2023-03-26T09:33:29.099Z,990.5
2023-03-26T09:34:30.013Z,990.5
2023-03-26T09:35:31.093Z,990.5
2023-03-26T09:36:31.987Z,990.5
2023-03-26T09:37:32.998Z,990.5
2023-03-26T09:38:33.958Z,990.4
2023-03-26T09:39:35.011Z,990.4
2023-03-26T09:40:36.036Z,990.5
2023-03-26T09:41:37.036Z,990.4
2023-03-26T09:42:37.988Z,990.3
2023-03-26T09:43:39.065Z,990.3
2023-03-26T09:44:40.063Z,990.4
2023-03-26T09:45:41.066Z,990.3
2023-03-26T09:46:42.037Z,990.4
2023-03-26T09:47:43.153Z,990.3
2023-03-26T09:48:43.976Z,990.3
2023-03-26T09:49:45.043Z,990.3
2023-03-26T09:50:46.042Z,990.3
2023-03-26T09:51:46.978Z,990.3
2023-03-26T09:52:48.060Z,990.3
2023-03-26T09:53:49.042Z,990.4
2023-03-26T09:54:49.982Z,990.3
2023-03-26T09:55:50.988Z,990.4
2023-03-26T09:56:52.018Z,990.4
2023-03-26T09:57:53.079Z,990.4
2023-03-26T09:58:54.047Z,990.4
2023-03-26T09:59:55.008Z,990.4
2023-03-26T10:00:56.162Z,990.3
2023-03-26T10:01:56.961Z,990.4
2023-03-26T10:02:58.089Z,990.4
2023-03-26T10:03:58.979Z,990.4
2023-03-26T10:05:00.008Z,990.4
2023-03-26T10:06:01.014Z,990.3
2023-03-26T10:07:02.501Z,990.4
2023-03-26T10:08:04.173Z,990.5
2023-03-26T10:09:05.028Z,990.4
2023-03-26T10:10:06.014Z,990.3
2023-03-26T10:11:07.141Z,990.4
2023-03-26T10:12:08.040Z,990.4
2023-03-26T10:13:14.721Z,990.3
2023-03-26T10:14:10.007Z,990.3
2023-03-26T10:15:11.075Z,990.3
2023-03-26T10:16:12.742Z,990.3
2023-03-26T10:17:14.041Z,990.3
2023-03-26T10:18:26.929Z,990.2
2023-03-26T10:19:16.088Z,990.4
2023-03-26T10:20:17.057Z,990.3
2023-03-26T10:21:18.090Z,990.3
2023-03-26T10:22:19.076Z,989.9
2023-03-26T10:23:20.024Z,990.2
2023-03-26T10:24:21.018Z,990.2
2023-03-26T10:25:22.089Z,990.1
2023-03-26T10:26:23.175Z,990.2
2023-03-26T10:27:24.793Z,990.1
2023-03-26T10:28:24.984Z,990.1
2023-03-26T10:29:26.071Z,990
2023-03-26T10:30:27.134Z,990
2023-03-26T10:31:28.202Z,990
2023-03-26T10:32:29.164Z,990.1
2023-03-26T10:33:30.076Z,990.1
2023-03-26T10:34:31.005Z,990.1
2023-03-26T10:35:32.068Z,990.1
2023-03-26T10:36:33.186Z,990
2023-03-26T10:37:34.061Z,990
2023-03-26T10:38:35.033Z,989.9
2023-03-26T10:39:37.700Z,989.9
2023-03-26T10:40:37.091Z,989.3
2023-03-26T10:41:38.095Z,989.7
2023-03-26T10:42:39.073Z,989.8
2023-03-26T10:43:40.225Z,990
2023-03-26T10:44:41.043Z,990.2
2023-03-26T10:45:42.071Z,990.1
2023-03-26T10:46:42.995Z,990.1
2023-03-26T10:47:44.092Z,990.1
2023-03-26T10:48:45.075Z,990.1
2023-03-26T10:49:46.034Z,990
2023-03-26T10:50:47.072Z,990.1
2023-03-26T10:51:48.201Z,990.2
2023-03-26T10:52:49.042Z,990.1
2023-03-26T10:53:50.055Z,990.2
2023-03-26T10:54:51.042Z,990.2
2023-03-26T10:55:52.159Z,990.1
2023-03-26T10:56:53.229Z,990.1
2023-03-26T10:57:54.110Z,990.1
2023-03-26T10:58:55.005Z,990
2023-03-26T10:59:56.134Z,990
2023-03-26T11:00:57.202Z,990
2023-03-26T11:01:58.224Z,989.9
2023-03-26T11:02:59.074Z,989.9
2023-03-26T11:04:00.238Z,989.9
2023-03-26T11:05:01.044Z,989.9
2023-03-26T11:06:02.086Z,989.8
2023-03-26T11:07:04.903Z,989.8
2023-03-26T11:08:04.122Z,989.8
2023-03-26T11:09:05.138Z,989.8
2023-03-26T11:10:06.145Z,989.8
2023-03-26T11:11:07.152Z,989.8
2023-03-26T11:12:25.966Z,989.8
2023-03-26T11:13:09.101Z,989.8
2023-03-26T11:14:10.279Z,989.7
2023-03-26T11:15:12.130Z,989.7
2023-03-26T11:16:13.152Z,989.7
2023-03-26T11:17:14.450Z,989.6
2023-03-26T11:18:15.207Z,989.2
2023-03-26T11:19:16.076Z,989.5
2023-03-26T11:20:17.097Z,989.6
2023-03-26T11:21:20.538Z,989.7
2023-03-26T11:22:19.147Z,989.8
2023-03-26T11:23:20.104Z,989.8
2023-03-26T11:24:21.058Z,989.8
2023-03-26T11:25:22.423Z,989.7
2023-03-26T11:26:24.140Z,989.8
2023-03-26T11:27:26.317Z,989.8
2023-03-26T11:28:26.088Z,989.8
2023-03-26T11:29:31.176Z,989.7
2023-03-26T11:30:28.179Z,989.8
2023-03-26T11:31:29.096Z,989.8
2023-03-26T11:32:30.139Z,989.7
2023-03-26T11:33:32.524Z,989.8
2023-03-26T11:34:32.102Z,989.8
2023-03-26T11:35:39.312Z,989.8
2023-03-26T11:36:35.100Z,989.8
2023-03-26T11:37:36.064Z,989.8
2023-03-26T11:38:37.048Z,989.8
2023-03-26T11:39:38.121Z,989.8
2023-03-26T11:40:39.122Z,989.7
2023-03-26T11:41:40.163Z,989.8
2023-03-26T11:42:41.084Z,989.8
2023-03-26T11:43:42.183Z,989.8
2023-03-26T11:44:43.154Z,989.8
2023-03-26T11:45:44.094Z,989.8
2023-03-26T11:46:45.100Z,989.8
2023-03-26T11:47:46.157Z,989.7
2023-03-26T11:48:47.119Z,989.8
2023-03-26T11:49:48.035Z,989.8
2023-03-26T11:50:49.080Z,989.8
2023-03-26T11:51:50.095Z,989.7
2023-03-26T11:52:51.125Z,989.7
2023-03-26T11:53:52.098Z,989.7
2023-03-26T11:54:53.163Z,989.7
2023-03-26T11:55:54.099Z,989.7
2023-03-26T11:57:04.122Z,989.7
2023-03-26T11:57:56.103Z,989.8
2023-03-26T11:58:57.104Z,989.7
2023-03-26T11:59:58.274Z,989.7
2023-03-26T12:00:59.115Z,989.7
2023-03-26T12:02:00.156Z,989.7
2023-03-26T12:03:01.138Z,989.6
2023-03-26T12:04:02.329Z,989.7
2023-03-26T12:05:03.502Z,989.7
2023-03-26T12:06:05.228Z,989.7
2023-03-26T12:07:06.051Z,989.7
2023-03-26T12:08:07.102Z,989.6
2023-03-26T12:09:08.133Z,989.7
2023-03-26T12:10:15.562Z,989.6
2023-03-26T12:11:10.136Z,989.6
2023-03-26T12:12:11.165Z,989.5
2023-03-26T12:13:12.100Z,989.6
2023-03-26T12:14:13.124Z,989.6
2023-03-26T12:15:14.094Z,989.6
2023-03-26T12:16:15.240Z,989.6
2023-03-26T12:17:16.216Z,989.5
2023-03-26T12:18:17.062Z,989.5
2023-03-26T12:19:18.077Z,989.5
2023-03-26T12:20:19.122Z,989.5
2023-03-26T12:21:20.104Z,989.5
2023-03-26T12:22:21.146Z,989.5
2023-03-26T12:23:22.159Z,989.4
2023-03-26T12:24:23.113Z,989.3
2023-03-26T12:25:24.086Z,989.3
2023-03-26T12:26:25.033Z,989.4
2023-03-26T12:27:26.081Z,989.4
2023-03-26T12:28:27.162Z,989.4
2023-03-26T12:29:28.102Z,989.4
2023-03-26T12:30:29.123Z,988.8
2023-03-26T12:31:30.175Z,989.2
2023-03-26T12:32:43.145Z,989.3
2023-03-26T12:33:32.263Z,989.4
2023-03-26T12:34:33.106Z,989.3
2023-03-26T12:35:34.127Z,989.4
2023-03-26T12:36:35.108Z,989.4
2023-03-26T12:37:36.167Z,989.3
2023-03-26T12:38:37.046Z,989.3
2023-03-26T12:40:08.499Z,989.3
2023-03-26T12:40:39.081Z,989.3
2023-03-26T12:42:26.094Z,989.3
2023-03-26T12:44:45.575Z,989.3
2023-03-26T12:44:45.684Z,989.3
2023-03-26T12:44:58.513Z,989.3
2023-03-26T12:45:45.138Z,989.3
2023-03-26T12:47:54.778Z,989.2
2023-03-26T12:47:59.623Z,989.2
2023-03-26T12:48:48.152Z,989
2023-03-26T12:49:49.165Z,989.1
2023-03-26T12:50:50.409Z,989.2
2023-03-26T12:51:51.169Z,989.1
2023-03-26T12:52:52.157Z,989.1
2023-03-26T12:53:53.178Z,989.1
2023-03-26T12:54:54.100Z,989.1
2023-03-26T12:55:55.157Z,989.1
2023-03-26T12:57:11.520Z,989.1
2023-03-26T12:57:57.093Z,989
2023-03-26T12:58:58.154Z,989
2023-03-26T12:59:59.158Z,988.9
2023-03-26T13:01:00.180Z,989
2023-03-26T13:02:01.244Z,988.9
2023-03-26T13:03:03.229Z,989
2023-03-26T13:04:04.163Z,989
2023-03-26T13:05:06.661Z,989
2023-03-26T13:06:06.194Z,988.9
2023-03-26T13:07:07.183Z,988.9
2023-03-26T13:08:08.192Z,988.9